createdAt,value
2019-01-31T00:00:39.696Z,0.90
2019-01-31T00:03:41.103Z,0.90
2019-01-31T00:06:35.115Z,0.90
2019-01-31T00:09:23.909Z,0.80
2019-01-31T00:12:07.998Z,0.80
2019-01-31T00:15:29.053Z,0.80
2019-01-31T00:18:14.455Z,0.70
2019-01-31T00:20:58.563Z,0.70
2019-01-31T00:24:03.901Z,0.70
2019-01-31T00:27:13.229Z,0.70
2019-01-31T00:30:06.720Z,0.60
2019-01-31T00:33:05.362Z,0.50
2019-01-31T00:36:12.768Z,0.50
2019-01-31T00:39:12.614Z,0.50
2019-01-31T00:42:21.680Z,0.50
2019-01-31T00:45:27.661Z,0.50
2019-01-31T00:48:31.184Z,0.50
2019-01-31T00:51:41.613Z,0.40
2019-01-31T00:55:01.515Z,0.50
2019-01-31T00:58:10.797Z,0.50
2019-01-31T01:01:01.403Z,0.40
2019-01-31T01:04:00.925Z,0.40
2019-01-31T01:07:17.453Z,0.30
2019-01-31T01:10:32.829Z,0.30
2019-01-31T01:13:27.261Z,0.20
2019-01-31T01:16:46.420Z,0.10
2019-01-31T01:19:51.776Z,0.10
2019-01-31T01:22:57.963Z,-0.10
2019-01-31T01:26:07.961Z,-0.10
2019-01-31T01:29:09.111Z,-0.10
2019-01-31T01:32:40.511Z,-0.10
2019-01-31T01:35:54.005Z,-0.20
2019-01-31T01:39:02.605Z,-0.20
2019-01-31T01:42:15.347Z,-0.20
2019-01-31T01:45:09.417Z,-0.20
2019-01-31T01:47:53.129Z,-0.20
2019-01-31T01:50:55.781Z,-0.30
2019-01-31T01:54:15.154Z,-0.40
2019-01-31T01:56:57.037Z,-0.40
2019-01-31T02:00:10.185Z,-0.40
2019-01-31T02:02:56.533Z,-0.40
2019-01-31T02:05:54.096Z,-0.50
2019-01-31T02:09:00.292Z,-0.50
2019-01-31T02:12:10.369Z,-0.50
2019-01-31T02:15:21.842Z,-0.60
2019-01-31T02:18:15.496Z,-0.60
2019-01-31T02:21:22.384Z,-0.60
2019-01-31T02:24:14.346Z,-0.60
2019-01-31T02:27:09.548Z,-0.70
2019-01-31T02:30:09.894Z,-0.70
2019-01-31T02:32:59.706Z,-0.70
2019-01-31T02:36:18.500Z,-0.70
2019-01-31T02:39:20.347Z,-0.70
2019-01-31T02:42:13.212Z,-0.70
2019-01-31T02:45:20.709Z,-0.80
2019-01-31T02:47:59.715Z,-0.80
2019-01-31T02:50:49.593Z,-0.90
2019-01-31T02:53:48.848Z,-0.90
2019-01-31T02:57:03.442Z,-1.00
2019-01-31T02:59:56.162Z,-0.90
2019-01-31T03:02:59.324Z,-1.00
2019-01-31T03:06:07.394Z,-1.00
2019-01-31T03:08:55.134Z,-1.10
2019-01-31T03:11:49.553Z,-1.10
2019-01-31T03:14:55.934Z,-1.10
2019-01-31T03:17:51.102Z,-1.10
2019-01-31T03:20:52.270Z,-1.10
2019-01-31T03:24:01.280Z,-1.20
2019-01-31T03:27:27.258Z,-1.20
2019-01-31T03:30:38.430Z,-1.20
2019-01-31T03:33:26.465Z,-1.20
2019-01-31T03:36:25.609Z,-1.20
2019-01-31T03:39:18.732Z,-1.30
2019-01-31T03:42:28.157Z,-1.30
2019-01-31T03:45:06.771Z,-1.30
2019-01-31T03:48:12.364Z,-1.40
2019-01-31T03:51:10.496Z,-1.30
2019-01-31T03:54:16.094Z,-1.30
2019-01-31T03:57:20.507Z,-1.30
2019-01-31T04:00:14.678Z,-1.30
2019-01-31T04:03:06.760Z,-1.30
2019-01-31T04:05:40.156Z,-1.30
2019-01-31T04:08:10.239Z,-1.30
2019-01-31T04:10:39.360Z,-1.30
2019-01-31T04:13:08.562Z,-1.20
2019-01-31T04:15:37.828Z,-1.20
2019-01-31T04:18:07.098Z,-1.30
2019-01-31T04:20:36.250Z,-1.30
2019-01-31T04:23:05.424Z,-1.30
2019-01-31T04:25:34.679Z,-1.30
2019-01-31T04:28:04.000Z,-1.30
2019-01-31T04:30:33.234Z,-1.30
2019-01-31T04:33:02.389Z,-1.30
2019-01-31T04:35:31.558Z,-1.30
2019-01-31T04:38:00.699Z,-1.20
2019-01-31T04:40:31.491Z,-1.30
2019-01-31T04:43:00.777Z,-1.30
2019-01-31T05:00:12.518Z,-1.20
2019-01-31T05:02:41.783Z,-1.20
2019-01-31T05:05:11.162Z,-1.20
2019-01-31T05:07:40.391Z,-1.20
2019-01-31T05:10:11.736Z,-1.20
2019-01-31T05:12:40.930Z,-1.10
2019-01-31T05:15:12.017Z,-1.10
2019-01-31T05:17:41.179Z,-1.10
2019-01-31T05:20:13.499Z,-1.10
2019-01-31T05:22:45.454Z,-1.00
2019-01-31T05:25:15.162Z,-1.00
2019-01-31T05:27:44.399Z,-1.00
2019-01-31T05:30:15.169Z,-0.90
2019-01-31T05:32:44.286Z,-0.90
2019-01-31T05:35:13.841Z,-0.90
2019-01-31T05:37:43.096Z,-0.60
2019-01-31T05:40:14.314Z,-0.60
2019-01-31T05:42:43.580Z,-0.60
2019-01-31T05:45:14.898Z,-0.70
2019-01-31T05:47:44.100Z,-0.70
2019-01-31T05:50:17.900Z,-0.70
2019-01-31T05:52:47.170Z,-0.80
2019-01-31T05:55:16.546Z,-0.80
2019-01-31T05:57:45.789Z,-0.80
2019-01-31T06:00:19.072Z,-0.80
2019-01-31T06:02:49.019Z,-0.80
2019-01-31T06:05:18.275Z,-0.80
2019-01-31T06:07:47.552Z,-0.80
2019-01-31T06:10:16.787Z,-0.80
2019-01-31T06:12:45.923Z,-0.80
2019-01-31T06:15:15.677Z,-0.70
2019-01-31T06:17:44.884Z,-0.70
2019-01-31T06:20:17.480Z,-0.70
2019-01-31T06:22:46.709Z,-0.70
2019-01-31T06:25:16.479Z,-0.70
2019-01-31T06:27:45.712Z,-0.70
2019-01-31T06:30:16.154Z,-0.70
2019-01-31T06:32:45.396Z,-0.70
2019-01-31T06:35:15.457Z,-0.80
2019-01-31T06:37:44.674Z,-0.80
2019-01-31T06:40:27.130Z,-0.80
2019-01-31T06:42:58.794Z,-0.80
2019-01-31T06:45:30.347Z,-0.80
2019-01-31T06:48:00.283Z,-0.70
2019-01-31T06:50:29.674Z,-0.70
2019-01-31T06:53:01.544Z,-0.70
2019-01-31T06:55:30.752Z,-0.70
2019-01-31T06:58:00.042Z,-0.70
2019-01-31T07:00:29.231Z,-0.70
2019-01-31T07:02:58.406Z,-0.70
2019-01-31T07:05:27.654Z,-0.70
2019-01-31T07:07:56.804Z,-0.70
2019-01-31T07:10:26.966Z,-0.70
2019-01-31T07:12:56.215Z,-0.70
2019-01-31T07:15:25.597Z,-0.70
2019-01-31T07:17:54.884Z,-0.70
2019-01-31T07:20:24.184Z,-0.70
2019-01-31T07:22:53.459Z,-0.70
2019-01-31T07:25:24.614Z,-0.70
2019-01-31T07:27:53.787Z,-0.70
2019-01-31T07:30:26.331Z,-0.60
2019-01-31T07:32:54.474Z,-0.60
2019-01-31T07:35:23.707Z,-0.50
2019-01-31T07:37:53.133Z,-0.50
2019-01-31T07:40:22.593Z,-0.50
2019-01-31T07:42:51.731Z,-0.40
2019-01-31T07:45:23.272Z,-0.30
2019-01-31T07:47:52.535Z,-0.20
2019-01-31T07:50:22.035Z,-0.10
2019-01-31T07:52:51.783Z,-0.10
2019-01-31T07:55:21.098Z,0.00
2019-01-31T07:57:50.772Z,0.00
2019-01-31T08:00:20.610Z,0.00
2019-01-31T08:02:49.768Z,0.00
2019-01-31T08:05:20.392Z,0.10
2019-01-31T08:07:50.678Z,0.10
2019-01-31T08:10:25.680Z,0.20
2019-01-31T08:12:54.913Z,0.20
2019-01-31T08:15:24.113Z,0.30
2019-01-31T08:17:53.302Z,0.30
2019-01-31T08:20:22.601Z,0.30
2019-01-31T08:22:51.883Z,0.40
2019-01-31T08:25:21.677Z,0.40
2019-01-31T08:27:51.233Z,0.50
2019-01-31T08:30:22.726Z,0.50
2019-01-31T08:32:52.328Z,0.60
2019-01-31T08:35:21.586Z,0.60
2019-01-31T08:37:50.720Z,0.60
2019-01-31T08:40:20.163Z,0.60
2019-01-31T08:42:51.530Z,0.70
2019-01-31T08:45:20.734Z,0.70
2019-01-31T08:47:50.000Z,0.70
2019-01-31T08:50:21.311Z,0.70
2019-01-31T08:52:51.846Z,0.80
2019-01-31T08:55:21.207Z,0.80
2019-01-31T08:57:50.448Z,0.80
2019-01-31T09:00:21.766Z,0.90
2019-01-31T09:02:51.358Z,0.90
2019-01-31T09:05:20.695Z,0.90
2019-01-31T09:07:49.945Z,0.90
2019-01-31T09:10:27.586Z,0.90
2019-01-31T09:12:57.079Z,1.00
2019-01-31T09:15:27.147Z,0.90
2019-01-31T09:17:56.474Z,1.10
2019-01-31T09:20:48.610Z,1.10
2019-01-31T09:23:36.240Z,1.10
2019-01-31T09:26:21.452Z,1.20
2019-01-31T09:29:21.146Z,1.10
2019-01-31T09:32:25.731Z,1.20
2019-01-31T09:35:45.498Z,1.20
2019-01-31T09:39:00.098Z,1.40
2019-01-31T09:42:26.355Z,1.50
2019-01-31T09:45:33.472Z,1.40
2019-01-31T09:48:23.938Z,1.30
2019-01-31T09:51:42.686Z,1.30
2019-01-31T09:54:38.914Z,1.30
2019-01-31T09:57:42.090Z,1.20
2019-01-31T10:00:31.839Z,1.20
2019-01-31T10:03:36.788Z,1.30
2019-01-31T10:06:38.383Z,1.20
2019-01-31T10:09:38.999Z,1.30
2019-01-31T10:13:05.879Z,1.30
2019-01-31T10:16:33.341Z,1.60
2019-01-31T10:19:43.858Z,1.50
2019-01-31T10:22:36.134Z,1.50
2019-01-31T10:25:43.055Z,1.40
2019-01-31T10:28:36.138Z,1.40
2019-01-31T10:31:48.676Z,1.30
2019-01-31T10:35:02.343Z,1.30
2019-01-31T10:37:58.636Z,1.60
2019-01-31T10:41:01.114Z,1.80
2019-01-31T10:43:53.336Z,2.20
2019-01-31T10:46:43.484Z,2.60
2019-01-31T10:49:52.282Z,2.80
2019-01-31T10:52:49.426Z,3.10
2019-01-31T10:56:05.725Z,3.20
2019-01-31T10:59:06.260Z,3.40
2019-01-31T11:02:19.409Z,3.60
2019-01-31T11:05:32.584Z,3.70
2019-01-31T11:08:55.224Z,3.70
2019-01-31T11:12:08.790Z,3.60
2019-01-31T11:14:44.908Z,3.60
2019-01-31T11:17:55.393Z,3.60
2019-01-31T11:21:14.533Z,3.50
2019-01-31T11:24:00.929Z,3.40
2019-01-31T11:27:23.741Z,3.60
2019-01-31T11:30:20.551Z,3.70
2019-01-31T11:33:21.317Z,3.90
2019-01-31T11:36:34.909Z,4.40
2019-01-31T11:39:43.997Z,4.50
2019-01-31T11:43:11.356Z,4.30
2019-01-31T11:45:57.991Z,4.10
2019-01-31T11:49:17.078Z,4.00
2019-01-31T11:52:28.220Z,3.80
2019-01-31T11:55:36.835Z,3.70
2019-01-31T11:58:51.798Z,3.60
2019-01-31T12:01:21.114Z,3.20
2019-01-31T12:03:56.592Z,3.10
2019-01-31T12:06:25.735Z,3.10
2019-01-31T12:08:55.419Z,2.90
2019-01-31T12:11:24.634Z,2.70
2019-01-31T12:13:58.110Z,2.70
2019-01-31T12:16:27.389Z,2.70
2019-01-31T12:18:56.626Z,2.70
2019-01-31T12:21:25.803Z,2.80
2019-01-31T12:23:55.311Z,2.70
2019-01-31T12:26:24.623Z,2.70
2019-01-31T12:28:53.904Z,2.80
2019-01-31T12:31:23.243Z,2.70
2019-01-31T12:33:53.923Z,2.60
2019-01-31T12:36:23.198Z,2.60
2019-01-31T12:38:54.888Z,2.60
2019-01-31T12:41:23.459Z,2.50
2019-01-31T12:43:52.709Z,2.40
2019-01-31T12:46:22.059Z,2.40
2019-01-31T12:48:51.369Z,2.40
2019-01-31T12:51:20.609Z,2.30
2019-01-31T12:53:49.873Z,2.20
2019-01-31T12:56:19.151Z,2.20
2019-01-31T12:58:48.386Z,2.20
2019-01-31T13:01:18.163Z,2.10
2019-01-31T13:03:48.491Z,2.10
2019-01-31T13:06:18.021Z,2.20
2019-01-31T13:08:47.265Z,2.20
2019-01-31T13:11:19.503Z,2.10
2019-01-31T13:13:48.654Z,2.00
2019-01-31T13:16:19.423Z,2.10
2019-01-31T13:18:48.688Z,2.10
2019-01-31T13:21:20.731Z,2.20
2019-01-31T13:23:48.751Z,2.20
2019-01-31T13:26:18.032Z,2.30
2019-01-31T13:28:47.285Z,2.40
2019-01-31T13:31:17.657Z,2.50
2019-01-31T13:33:46.987Z,2.50
2019-01-31T13:36:16.919Z,2.40
2019-01-31T13:38:46.235Z,2.40
2019-01-31T13:41:15.441Z,2.40
2019-01-31T13:43:44.689Z,2.30
2019-01-31T13:46:13.945Z,2.30
2019-01-31T13:48:43.259Z,2.30
2019-01-31T13:51:12.590Z,2.20
2019-01-31T13:53:42.015Z,2.20
2019-01-31T13:56:11.435Z,2.10
2019-01-31T13:58:40.602Z,2.00
2019-01-31T14:01:09.796Z,1.90
2019-01-31T14:03:39.062Z,1.90
2019-01-31T14:06:08.354Z,2.00
2019-01-31T14:08:37.674Z,1.90
2019-01-31T14:11:07.067Z,1.90
2019-01-31T14:13:36.390Z,2.00
2019-01-31T14:16:05.662Z,2.00
2019-01-31T14:18:34.962Z,2.00
2019-01-31T14:21:04.924Z,2.00
2019-01-31T14:23:34.074Z,2.00
2019-01-31T14:26:03.421Z,2.00
2019-01-31T14:28:32.632Z,2.00
2019-01-31T14:31:01.838Z,2.00
2019-01-31T14:33:31.186Z,2.00
2019-01-31T14:36:01.978Z,2.10
2019-01-31T14:38:31.282Z,2.00
2019-01-31T14:41:00.539Z,2.00
2019-01-31T14:43:29.889Z,2.00
2019-01-31T14:45:59.942Z,2.00
2019-01-31T14:48:29.125Z,2.00
2019-01-31T14:50:58.327Z,2.00
2019-01-31T14:53:27.571Z,2.00
2019-01-31T14:55:56.733Z,2.00
2019-01-31T14:58:26.243Z,2.00
2019-01-31T15:00:55.484Z,2.10
2019-01-31T15:03:24.773Z,2.10
2019-01-31T15:05:54.022Z,2.10
2019-01-31T15:08:23.294Z,2.20
2019-01-31T15:10:52.602Z,2.10
2019-01-31T15:13:21.884Z,2.20
2019-01-31T15:15:51.088Z,2.20
2019-01-31T15:18:20.327Z,2.20
2019-01-31T15:20:49.756Z,2.20
2019-01-31T15:23:18.924Z,2.20
2019-01-31T15:25:48.134Z,2.20
2019-01-31T15:28:17.322Z,2.20
2019-01-31T15:30:46.675Z,2.10
2019-01-31T15:33:15.914Z,2.10
2019-01-31T15:35:45.291Z,2.00
2019-01-31T15:38:14.480Z,2.00
2019-01-31T15:40:47.000Z,2.80
2019-01-31T15:43:17.141Z,2.60
2019-01-31T15:45:46.422Z,2.20
2019-01-31T15:48:16.001Z,2.10
2019-01-31T15:50:45.262Z,1.80
2019-01-31T15:53:14.440Z,1.60
2019-01-31T15:55:44.504Z,1.50
2019-01-31T15:58:13.764Z,2.40
2019-01-31T16:00:48.622Z,2.10
2019-01-31T16:03:22.821Z,1.80
2019-01-31T16:05:52.649Z,1.50
2019-01-31T16:08:22.258Z,1.30
2019-01-31T16:10:51.867Z,1.20
2019-01-31T16:13:21.135Z,1.00
2019-01-31T16:15:51.116Z,0.80
2019-01-31T16:18:20.476Z,0.80
2019-01-31T16:20:49.794Z,0.70
2019-01-31T16:23:19.275Z,0.50
2019-01-31T16:25:49.432Z,1.00
2019-01-31T16:28:19.022Z,3.20
2019-01-31T16:30:48.303Z,4.50
2019-01-31T16:33:17.573Z,5.10
2019-01-31T16:35:48.103Z,4.00
2019-01-31T16:38:17.306Z,3.10
2019-01-31T16:40:46.523Z,2.40
2019-01-31T16:43:15.949Z,1.90
2019-01-31T16:45:46.205Z,1.40
2019-01-31T16:48:15.644Z,1.10
2019-01-31T16:50:44.981Z,0.80
2019-01-31T16:53:14.275Z,0.70
2019-01-31T16:55:43.805Z,0.60
2019-01-31T16:58:13.210Z,0.50
2019-01-31T17:00:42.684Z,0.50
2019-01-31T17:03:13.128Z,0.50
2019-01-31T17:05:42.713Z,0.40
2019-01-31T17:08:11.929Z,0.30
2019-01-31T17:10:41.210Z,0.20
2019-01-31T17:13:10.592Z,0.20
2019-01-31T17:15:40.076Z,0.30
2019-01-31T17:18:09.396Z,0.30
2019-01-31T17:20:41.222Z,0.20
2019-01-31T17:23:10.554Z,0.10
2019-01-31T17:25:39.808Z,0.10
2019-01-31T17:28:09.304Z,0.10
2019-01-31T17:30:38.598Z,0.10
2019-01-31T17:33:08.378Z,0.00
2019-01-31T17:35:37.763Z,0.00
2019-01-31T17:38:08.168Z,0.00
2019-01-31T17:40:39.279Z,-0.10
2019-01-31T17:43:10.414Z,-0.10
2019-01-31T17:45:41.832Z,-0.10
2019-01-31T17:48:14.723Z,-0.10
2019-01-31T17:50:44.174Z,-0.10
2019-01-31T17:53:14.053Z,-0.10
2019-01-31T17:55:44.244Z,-0.10
2019-01-31T17:58:13.422Z,-0.10
2019-01-31T18:00:49.292Z,-0.20
2019-01-31T18:03:18.864Z,-0.10
2019-01-31T18:05:51.047Z,-0.10
2019-01-31T18:08:20.414Z,-0.20
2019-01-31T18:10:52.900Z,-0.10
2019-01-31T18:13:22.158Z,-0.20
2019-01-31T18:15:51.505Z,-0.20
2019-01-31T18:18:20.714Z,-0.20
2019-01-31T18:20:50.409Z,-0.20
2019-01-31T18:23:19.835Z,-0.20
2019-01-31T18:25:49.746Z,-0.30
2019-01-31T18:28:19.371Z,-0.30
2019-01-31T18:30:49.525Z,-0.30
2019-01-31T18:33:19.678Z,-0.30
2019-01-31T18:35:49.112Z,-0.30
2019-01-31T18:38:19.588Z,-0.40
2019-01-31T18:40:49.965Z,-0.40
2019-01-31T18:43:19.565Z,-0.40
2019-01-31T18:45:53.360Z,-0.40
2019-01-31T18:48:24.110Z,-0.50
2019-01-31T18:50:54.216Z,-0.50
2019-01-31T18:53:24.132Z,-0.50
2019-01-31T18:55:53.533Z,-0.50
2019-01-31T18:58:25.306Z,-0.50
2019-01-31T19:00:54.684Z,-0.50
2019-01-31T19:03:24.408Z,-0.60
2019-01-31T19:05:53.748Z,-0.60
2019-01-31T19:08:23.181Z,-0.60
2019-01-31T19:10:53.597Z,-0.60
2019-01-31T19:13:23.124Z,-0.60
2019-01-31T19:16:05.163Z,-0.60
2019-01-31T19:18:32.952Z,-0.60
2019-01-31T19:21:02.140Z,-0.60
2019-01-31T19:23:32.369Z,-0.60
2019-01-31T19:26:04.812Z,-0.60
2019-01-31T19:28:34.174Z,-0.60
2019-01-31T19:31:06.068Z,-0.70
2019-01-31T19:33:39.967Z,-0.70
2019-01-31T19:36:12.764Z,-0.70
2019-01-31T19:38:42.445Z,-0.70
2019-01-31T19:41:12.212Z,-0.70
2019-01-31T19:43:42.697Z,-0.70
2019-01-31T19:46:17.002Z,-0.70
2019-01-31T19:48:46.430Z,-0.70
2019-01-31T19:51:16.560Z,-0.70
2019-01-31T19:53:48.668Z,-0.70
2019-01-31T19:56:18.877Z,-0.70
2019-01-31T19:58:50.915Z,-0.70
2019-01-31T20:01:23.186Z,-0.70
2019-01-31T20:03:52.468Z,-0.70
2019-01-31T20:06:21.925Z,-0.70
2019-01-31T20:08:54.422Z,-0.70
2019-01-31T20:11:23.725Z,-0.70
2019-01-31T20:13:59.109Z,-0.70
2019-01-31T20:16:29.473Z,-0.70
2019-01-31T20:19:01.876Z,-0.70
2019-01-31T20:21:31.611Z,-0.60
2019-01-31T20:24:01.158Z,-0.70
2019-01-31T20:26:35.098Z,-0.60
2019-01-31T20:29:04.852Z,-0.70
2019-01-31T20:31:34.142Z,-0.60
2019-01-31T20:34:04.200Z,-0.60
2019-01-31T20:36:33.498Z,-0.60
2019-01-31T20:39:03.055Z,-0.60
2019-01-31T20:41:32.514Z,-0.60
2019-01-31T20:44:03.147Z,-0.50
2019-01-31T20:46:40.084Z,-0.50
2019-01-31T20:49:06.077Z,-0.50
2019-01-31T20:51:35.373Z,-0.50
2019-01-31T20:54:04.847Z,-0.50
2019-01-31T20:56:34.256Z,-0.40
2019-01-31T20:59:03.696Z,-0.40
2019-01-31T21:01:34.596Z,-0.50
2019-01-31T21:04:07.403Z,-0.50
2019-01-31T21:06:41.391Z,-0.40
2019-01-31T21:09:08.991Z,-0.50
2019-01-31T21:11:38.253Z,-0.50
2019-01-31T21:14:07.494Z,-0.50
2019-01-31T21:16:36.794Z,-0.40
2019-01-31T21:19:20.791Z,-0.40
2019-01-31T21:21:50.019Z,-0.50
2019-01-31T21:24:19.246Z,-0.40
2019-01-31T21:26:49.899Z,-0.40
2019-01-31T21:29:20.256Z,-0.40
2019-01-31T21:31:49.963Z,-0.40
2019-01-31T21:34:19.071Z,-0.40
2019-01-31T21:36:48.237Z,-0.40
2019-01-31T21:39:18.466Z,-0.40
2019-01-31T21:41:49.369Z,-0.50
2019-01-31T21:44:18.687Z,-0.40
2019-01-31T21:46:49.251Z,-0.30
2019-01-31T21:49:18.572Z,-0.30
2019-01-31T21:51:47.928Z,-0.30
2019-01-31T21:54:17.557Z,-0.30
2019-01-31T21:56:47.971Z,-0.30
2019-01-31T21:59:17.848Z,-0.30
2019-01-31T22:01:47.245Z,-0.30
2019-01-31T22:04:16.561Z,-0.30
2019-01-31T22:06:46.832Z,-0.30
2019-01-31T22:09:16.201Z,-0.30
2019-01-31T22:11:48.773Z,-0.30
2019-01-31T22:14:17.989Z,-0.30
2019-01-31T22:16:49.332Z,-0.30
2019-01-31T22:19:18.486Z,-0.30
2019-01-31T22:21:48.104Z,-0.30
2019-01-31T22:24:17.355Z,-0.30
2019-01-31T22:26:46.543Z,-0.30
2019-01-31T22:29:15.811Z,-0.30
2019-01-31T22:31:45.107Z,-0.30
2019-01-31T22:34:14.331Z,-0.20
2019-01-31T22:36:47.089Z,-0.20
2019-01-31T22:39:16.250Z,-0.30
2019-01-31T22:41:45.410Z,-0.30
2019-01-31T22:44:15.160Z,-0.20
2019-01-31T22:46:44.286Z,-0.20
2019-01-31T22:49:13.486Z,-0.10
2019-01-31T22:51:42.639Z,-0.20
2019-01-31T22:54:11.964Z,-0.20
2019-01-31T22:56:41.187Z,-0.10
2019-01-31T22:59:10.370Z,-0.10
2019-01-31T23:02:02.107Z,-0.10
2019-01-31T23:04:31.490Z,-0.10
2019-01-31T23:07:01.721Z,0.00
2019-01-31T23:09:30.968Z,0.00
2019-01-31T23:12:00.191Z,0.00
2019-01-31T23:14:29.859Z,0.00
2019-01-31T23:16:59.163Z,0.00
2019-01-31T23:19:28.595Z,0.00
2019-01-31T23:21:57.971Z,0.00
2019-01-31T23:24:27.217Z,0.10
2019-01-31T23:26:56.457Z,0.10
2019-01-31T23:29:25.746Z,0.10
2019-01-31T23:31:54.943Z,0.10
2019-01-31T23:34:24.113Z,0.10
2019-01-31T23:36:53.350Z,0.20
2019-01-31T23:39:22.487Z,0.10
2019-01-31T23:41:51.782Z,0.10
2019-01-31T23:44:20.940Z,0.20
2019-01-31T23:46:50.070Z,0.20
2019-01-31T23:49:19.421Z,0.20
2019-01-31T23:51:48.602Z,0.20
2019-01-31T23:54:17.824Z,0.20
2019-01-31T23:56:47.040Z,0.30
2019-01-31T23:59:16.618Z,0.30
